sensor_id;sensor_type;location;lat;lon;timestamp;P1;durP1;ratioP1;P2;durP2;ratioP2
44426;SDS011;30133;47.866;-4.222;2022-12-24T00:01:03;17.10;;;4.28;;
44426;SDS011;30133;47.866;-4.222;2022-12-24T00:03:32;10.75;;;3.65;;
44426;SDS011;30133;47.866;-4.222;2022-12-24T00:06:05;16.45;;;4.13;;
44426;SDS011;30133;47.866;-4.222;2022-12-24T00:08:40;16.35;;;3.47;;
44426;SDS011;30133;47.866;-4.222;2022-12-24T00:11:06;7.55;;;3.30;;
44426;SDS011;30133;47.866;-4.222;2022-12-24T00:13:35;11.90;;;4.18;;
44426;SDS011;30133;47.866;-4.222;2022-12-24T00:16:02;13.25;;;4.40;;
44426;SDS011;30133;47.866;-4.222;2022-12-24T00:18:29;13.30;;;3.50;;
44426;SDS011;30133;47.866;-4.222;2022-12-24T00:20:55;16.20;;;4.22;;
44426;SDS011;30133;47.866;-4.222;2022-12-24T00:23:23;12.63;;;4.47;;
44426;SDS011;30133;47.866;-4.222;2022-12-24T00:25:50;13.82;;;3.92;;
44426;SDS011;30133;47.866;-4.222;2022-12-24T00:28:16;13.98;;;3.60;;
44426;SDS011;30133;47.866;-4.222;2022-12-24T00:30:43;13.40;;;4.18;;
44426;SDS011;30133;47.866;-4.222;2022-12-24T00:33:10;15.52;;;4.63;;
44426;SDS011;30133;47.866;-4.222;2022-12-24T00:35:37;10.45;;;3.90;;
44426;SDS011;30133;47.866;-4.222;2022-12-24T00:38:05;15.40;;;3.33;;
44426;SDS011;30133;47.866;-4.222;2022-12-24T00:40:36;13.25;;;3.95;;
44426;SDS011;30133;47.866;-4.222;2022-12-24T00:43:02;12.68;;;4.10;;
44426;SDS011;30133;47.866;-4.222;2022-12-24T00:45:29;14.77;;;3.55;;
44426;SDS011;30133;47.866;-4.222;2022-12-24T00:47:56;13.95;;;4.00;;
44426;SDS011;30133;47.866;-4.222;2022-12-24T00:50:22;13.18;;;4.25;;
44426;SDS011;30133;47.866;-4.222;2022-12-24T00:52:49;12.68;;;3.90;;
44426;SDS011;30133;47.866;-4.222;2022-12-24T00:55:16;8.57;;;3.28;;
44426;SDS011;30133;47.866;-4.222;2022-12-24T00:57:43;16.60;;;3.45;;
44426;SDS011;30133;47.866;-4.222;2022-12-24T01:00:11;14.52;;;4.18;;
44426;SDS011;30133;47.866;-4.222;2022-12-24T01:02:40;14.27;;;3.58;;
44426;SDS011;30133;47.866;-4.222;2022-12-24T01:05:09;11.43;;;3.47;;
44426;SDS011;30133;47.866;-4.222;2022-12-24T01:07:37;10.90;;;3.80;;
44426;SDS011;30133;47.866;-4.222;2022-12-24T01:10:06;13.82;;;4.25;;
44426;SDS011;30133;47.866;-4.222;2022-12-24T01:12:35;15.75;;;4.15;;
44426;SDS011;30133;47.866;-4.222;2022-12-24T01:15:03;11.82;;;3.78;;
44426;SDS011;30133;47.866;-4.222;2022-12-24T01:17:31;10.15;;;3.65;;
44426;SDS011;30133;47.866;-4.222;2022-12-24T01:19:59;12.55;;;3.58;;
44426;SDS011;30133;47.866;-4.222;2022-12-24T01:22:27;13.43;;;3.63;;
44426;SDS011;30133;47.866;-4.222;2022-12-24T01:24:55;11.85;;;4.03;;
44426;SDS011;30133;47.866;-4.222;2022-12-24T01:27:22;15.82;;;4.20;;
44426;SDS011;30133;47.866;-4.222;2022-12-24T01:29:48;12.32;;;3.20;;
44426;SDS011;30133;47.866;-4.222;2022-12-24T01:32:15;23.48;;;4.05;;
44426;SDS011;30133;47.866;-4.222;2022-12-24T01:34:43;16.27;;;3.70;;
44426;SDS011;30133;47.866;-4.222;2022-12-24T01:37:10;10.98;;;3.88;;
44426;SDS011;30133;47.866;-4.222;2022-12-24T01:39:37;12.50;;;3.30;;
44426;SDS011;30133;47.866;-4.222;2022-12-24T01:42:26;11.30;;;2.70;;
44426;SDS011;30133;47.866;-4.222;2022-12-24T01:48:02;19.55;;;3.53;;
44426;SDS011;30133;47.866;-4.222;2022-12-24T01:50:30;13.65;;;3.65;;
44426;SDS011;30133;47.866;-4.222;2022-12-24T01:52:56;14.13;;;3.42;;
44426;SDS011;30133;47.866;-4.222;2022-12-24T01:55:23;14.52;;;3.25;;
44426;SDS011;30133;47.866;-4.222;2022-12-24T01:57:52;10.85;;;3.63;;
44426;SDS011;30133;47.866;-4.222;2022-12-24T02:00:21;10.57;;;2.90;;
44426;SDS011;30133;47.866;-4.222;2022-12-24T02:02:48;10.25;;;3.10;;
44426;SDS011;30133;47.866;-4.222;2022-12-24T02:08:21;11.52;;;3.45;;
44426;SDS011;30133;47.866;-4.222;2022-12-24T02:10:48;15.50;;;4.10;;
44426;SDS011;30133;47.866;-4.222;2022-12-24T02:13:16;13.05;;;3.47;;
44426;SDS011;30133;47.866;-4.222;2022-12-24T02:18:25;12.18;;;3.20;;
44426;SDS011;30133;47.866;-4.222;2022-12-24T02:22:06;11.50;;;2.95;;
44426;SDS011;30133;47.866;-4.222;2022-12-24T02:27:41;11.82;;;2.58;;
44426;SDS011;30133;47.866;-4.222;2022-12-24T02:30:29;10.98;;;3.60;;
44426;SDS011;30133;47.866;-4.222;2022-12-24T02:33:12;10.63;;;3.05;;
44426;SDS011;30133;47.866;-4.222;2022-12-24T02:39:01;13.00;;;3.20;;
44426;SDS011;30133;47.866;-4.222;2022-12-24T02:41:36;11.40;;;3.17;;
44426;SDS011;30133;47.866;-4.222;2022-12-24T02:44:52;9.18;;;3.13;;
44426;SDS011;30133;47.866;-4.222;2022-12-24T02:47:48;9.80;;;3.65;;
44426;SDS011;30133;47.866;-4.222;2022-12-24T02:50:18;14.00;;;3.85;;
44426;SDS011;30133;47.866;-4.222;2022-12-24T02:52:47;10.93;;;2.90;;
44426;SDS011;30133;47.866;-4.222;2022-12-24T02:55:23;9.18;;;2.65;;
44426;SDS011;30133;47.866;-4.222;2022-12-24T03:01:19;13.32;;;3.20;;
44426;SDS011;30133;47.866;-4.222;2022-12-24T03:13:16;13.20;;;3.70;;
44426;SDS011;30133;47.866;-4.222;2022-12-24T03:15:44;9.50;;;2.92;;
44426;SDS011;30133;47.866;-4.222;2022-12-24T03:18:14;10.95;;;2.75;;
44426;SDS011;30133;47.866;-4.222;2022-12-24T03:20:51;13.38;;;2.92;;
44426;SDS011;30133;47.866;-4.222;2022-12-24T03:23:27;12.73;;;3.13;;
44426;SDS011;30133;47.866;-4.222;2022-12-24T03:25:55;12.05;;;2.80;;
44426;SDS011;30133;47.866;-4.222;2022-12-24T03:28:26;16.45;;;3.90;;
44426;SDS011;30133;47.866;-4.222;2022-12-24T03:30:53;12.02;;;3.50;;
44426;SDS011;30133;47.866;-4.222;2022-12-24T03:33:20;10.80;;;2.90;;
44426;SDS011;30133;47.866;-4.222;2022-12-24T03:35:48;16.60;;;2.92;;
44426;SDS011;30133;47.866;-4.222;2022-12-24T03:38:15;11.05;;;2.65;;
44426;SDS011;30133;47.866;-4.222;2022-12-24T03:40:43;7.22;;;2.75;;
44426;SDS011;30133;47.866;-4.222;2022-12-24T03:43:09;11.05;;;3.40;;
44426;SDS011;30133;47.866;-4.222;2022-12-24T03:45:36;10.00;;;3.58;;
44426;SDS011;30133;47.866;-4.222;2022-12-24T03:48:04;16.13;;;3.05;;
44426;SDS011;30133;47.866;-4.222;2022-12-24T03:50:31;6.18;;;2.80;;
44426;SDS011;30133;47.866;-4.222;2022-12-24T03:52:58;10.40;;;3.63;;
44426;SDS011;30133;47.866;-4.222;2022-12-24T03:55:31;7.88;;;2.95;;
44426;SDS011;30133;47.866;-4.222;2022-12-24T03:57:59;9.45;;;2.47;;
44426;SDS011;30133;47.866;-4.222;2022-12-24T04:00:25;14.25;;;4.05;;
44426;SDS011;30133;47.866;-4.222;2022-12-24T04:02:52;11.15;;;2.95;;
44426;SDS011;30133;47.866;-4.222;2022-12-24T04:05:21;12.35;;;3.13;;
44426;SDS011;30133;47.866;-4.222;2022-12-24T04:07:49;10.02;;;3.22;;
44426;SDS011;30133;47.866;-4.222;2022-12-24T04:10:16;13.48;;;2.80;;
44426;SDS011;30133;47.866;-4.222;2022-12-24T04:12:44;9.85;;;2.53;;
44426;SDS011;30133;47.866;-4.222;2022-12-24T04:15:11;11.27;;;3.25;;
44426;SDS011;30133;47.866;-4.222;2022-12-24T04:17:40;13.30;;;3.15;;
44426;SDS011;30133;47.866;-4.222;2022-12-24T04:20:15;10.65;;;3.05;;
44426;SDS011;30133;47.866;-4.222;2022-12-24T04:22:42;11.02;;;3.15;;
44426;SDS011;30133;47.866;-4.222;2022-12-24T04:25:08;9.80;;;3.35;;
44426;SDS011;30133;47.866;-4.222;2022-12-24T04:27:35;10.93;;;3.13;;
44426;SDS011;30133;47.866;-4.222;2022-12-24T04:30:02;9.88;;;3.38;;
44426;SDS011;30133;47.866;-4.222;2022-12-24T04:32:34;14.07;;;3.80;;
44426;SDS011;30133;47.866;-4.222;2022-12-24T04:35:02;9.82;;;3.08;;
44426;SDS011;30133;47.866;-4.222;2022-12-24T04:37:36;10.38;;;2.40;;
44426;SDS011;30133;47.866;-4.222;2022-12-24T04:40:14;10.80;;;2.55;;
44426;SDS011;30133;47.866;-4.222;2022-12-24T04:42:41;6.65;;;1.83;;
44426;SDS011;30133;47.866;-4.222;2022-12-24T04:45:11;7.85;;;2.83;;
44426;SDS011;30133;47.866;-4.222;2022-12-24T04:47:44;9.80;;;3.33;;
44426;SDS011;30133;47.866;-4.222;2022-12-24T04:50:14;10.50;;;2.80;;
44426;SDS011;30133;47.866;-4.222;2022-12-24T04:52:43;11.50;;;3.08;;
44426;SDS011;30133;47.866;-4.222;2022-12-24T04:55:09;9.57;;;3.15;;
44426;SDS011;30133;47.866;-4.222;2022-12-24T04:57:36;8.38;;;2.70;;
44426;SDS011;30133;47.866;-4.222;2022-12-24T05:00:03;9.52;;;2.35;;
44426;SDS011;30133;47.866;-4.222;2022-12-24T05:02:32;9.90;;;2.85;;
44426;SDS011;30133;47.866;-4.222;2022-12-24T05:04:58;10.70;;;2.72;;
44426;SDS011;30133;47.866;-4.222;2022-12-24T05:07:24;10.15;;;2.92;;
44426;SDS011;30133;47.866;-4.222;2022-12-24T05:09:51;15.68;;;2.50;;
44426;SDS011;30133;47.866;-4.222;2022-12-24T05:12:19;11.43;;;2.95;;
44426;SDS011;30133;47.866;-4.222;2022-12-24T05:14:45;8.63;;;2.88;;
44426;SDS011;30133;47.866;-4.222;2022-12-24T05:17:11;7.80;;;2.65;;
44426;SDS011;30133;47.866;-4.222;2022-12-24T05:19:38;8.80;;;2.65;;
44426;SDS011;30133;47.866;-4.222;2022-12-24T05:22:04;8.00;;;2.30;;
44426;SDS011;30133;47.866;-4.222;2022-12-24T05:24:49;9.48;;;2.65;;
44426;SDS011;30133;47.866;-4.222;2022-12-24T05:27:34;10.00;;;2.90;;
44426;SDS011;30133;47.866;-4.222;2022-12-24T05:30:01;10.27;;;3.20;;
44426;SDS011;30133;47.866;-4.222;2022-12-24T05:32:27;9.98;;;2.42;;
44426;SDS011;30133;47.866;-4.222;2022-12-24T05:34:53;11.18;;;3.17;;
44426;SDS011;30133;47.866;-4.222;2022-12-24T05:37:20;10.05;;;2.88;;
44426;SDS011;30133;47.866;-4.222;2022-12-24T05:39:46;11.68;;;3.35;;
44426;SDS011;30133;47.866;-4.222;2022-12-24T05:42:13;6.25;;;2.30;;
44426;SDS011;30133;47.866;-4.222;2022-12-24T05:44:39;9.18;;;2.58;;
44426;SDS011;30133;47.866;-4.222;2022-12-24T05:47:06;9.88;;;2.80;;
44426;SDS011;30133;47.866;-4.222;2022-12-24T05:49:35;9.60;;;2.63;;
44426;SDS011;30133;47.866;-4.222;2022-12-24T05:52:01;9.48;;;2.80;;
44426;SDS011;30133;47.866;-4.222;2022-12-24T05:54:28;13.18;;;2.67;;
44426;SDS011;30133;47.866;-4.222;2022-12-24T05:56:54;8.75;;;2.70;;
44426;SDS011;30133;47.866;-4.222;2022-12-24T05:59:21;10.23;;;3.25;;
44426;SDS011;30133;47.866;-4.222;2022-12-24T06:01:47;9.43;;;2.45;;
44426;SDS011;30133;47.866;-4.222;2022-12-24T06:04:14;7.57;;;2.53;;
44426;SDS011;30133;47.866;-4.222;2022-12-24T06:06:40;9.27;;;2.78;;
44426;SDS011;30133;47.866;-4.222;2022-12-24T06:09:08;9.93;;;2.70;;
44426;SDS011;30133;47.866;-4.222;2022-12-24T06:11:41;8.50;;;2.58;;
44426;SDS011;30133;47.866;-4.222;2022-12-24T06:14:08;7.82;;;2.60;;
44426;SDS011;30133;47.866;-4.222;2022-12-24T06:16:35;10.48;;;2.10;;
44426;SDS011;30133;47.866;-4.222;2022-12-24T06:19:02;8.88;;;3.00;;
44426;SDS011;30133;47.866;-4.222;2022-12-24T06:21:30;12.60;;;2.15;;
44426;SDS011;30133;47.866;-4.222;2022-12-24T06:23:57;5.50;;;2.28;;
44426;SDS011;30133;47.866;-4.222;2022-12-24T06:26:24;10.48;;;2.38;;
44426;SDS011;30133;47.866;-4.222;2022-12-24T06:28:51;11.70;;;2.85;;
44426;SDS011;30133;47.866;-4.222;2022-12-24T06:31:19;9.80;;;2.83;;
44426;SDS011;30133;47.866;-4.222;2022-12-24T06:33:47;12.18;;;3.25;;
44426;SDS011;30133;47.866;-4.222;2022-12-24T06:36:19;9.07;;;2.63;;
44426;SDS011;30133;47.866;-4.222;2022-12-24T06:38:50;9.90;;;2.55;;
44426;SDS011;30133;47.866;-4.222;2022-12-24T06:41:18;8.35;;;2.63;;
44426;SDS011;30133;47.866;-4.222;2022-12-24T06:43:47;5.93;;;2.42;;
44426;SDS011;30133;47.866;-4.222;2022-12-24T06:46:16;13.20;;;2.60;;
44426;SDS011;30133;47.866;-4.222;2022-12-24T06:48:44;7.40;;;2.20;;
44426;SDS011;30133;47.866;-4.222;2022-12-24T06:51:12;7.68;;;2.30;;
44426;SDS011;30133;47.866;-4.222;2022-12-24T06:53:44;7.53;;;2.17;;
44426;SDS011;30133;47.866;-4.222;2022-12-24T06:56:13;7.63;;;2.50;;
44426;SDS011;30133;47.866;-4.222;2022-12-24T06:58:42;9.93;;;2.28;;
44426;SDS011;30133;47.866;-4.222;2022-12-24T07:01:10;8.30;;;2.55;;
44426;SDS011;30133;47.866;-4.222;2022-12-24T07:03:43;6.32;;;2.28;;
44426;SDS011;30133;47.866;-4.222;2022-12-24T07:06:14;6.53;;;2.25;;
44426;SDS011;30133;47.866;-4.222;2022-12-24T07:08:53;9.98;;;2.90;;
44426;SDS011;30133;47.866;-4.222;2022-12-24T07:11:30;6.13;;;2.42;;
44426;SDS011;30133;47.866;-4.222;2022-12-24T07:13:57;12.25;;;2.88;;
44426;SDS011;30133;47.866;-4.222;2022-12-24T07:16:24;8.48;;;2.38;;
44426;SDS011;30133;47.866;-4.222;2022-12-24T07:18:51;6.20;;;2.08;;
44426;SDS011;30133;47.866;-4.222;2022-12-24T07:21:19;9.25;;;2.13;;
44426;SDS011;30133;47.866;-4.222;2022-12-24T07:23:48;8.27;;;2.03;;
44426;SDS011;30133;47.866;-4.222;2022-12-24T07:26:15;13.35;;;2.63;;
44426;SDS011;30133;47.866;-4.222;2022-12-24T07:28:41;10.43;;;2.67;;
44426;SDS011;30133;47.866;-4.222;2022-12-24T07:31:08;8.98;;;1.88;;
44426;SDS011;30133;47.866;-4.222;2022-12-24T07:33:35;9.80;;;2.25;;
44426;SDS011;30133;47.866;-4.222;2022-12-24T07:36:05;8.85;;;2.20;;
44426;SDS011;30133;47.866;-4.222;2022-12-24T07:38:34;4.95;;;1.77;;
44426;SDS011;30133;47.866;-4.222;2022-12-24T07:41:03;8.65;;;2.00;;
44426;SDS011;30133;47.866;-4.222;2022-12-24T07:43:31;8.90;;;2.63;;
44426;SDS011;30133;47.866;-4.222;2022-12-24T07:46:00;4.60;;;1.67;;
44426;SDS011;30133;47.866;-4.222;2022-12-24T07:48:28;10.45;;;2.58;;
44426;SDS011;30133;47.866;-4.222;2022-12-24T07:50:57;8.10;;;2.25;;
44426;SDS011;30133;47.866;-4.222;2022-12-24T07:53:34;3.50;;;1.85;;
44426;SDS011;30133;47.866;-4.222;2022-12-24T07:56:03;6.63;;;1.80;;
44426;SDS011;30133;47.866;-4.222;2022-12-24T07:58:31;5.78;;;2.58;;
44426;SDS011;30133;47.866;-4.222;2022-12-24T08:00:58;7.68;;;2.40;;
44426;SDS011;30133;47.866;-4.222;2022-12-24T08:03:33;7.25;;;2.10;;
44426;SDS011;30133;47.866;-4.222;2022-12-24T08:06:00;8.95;;;2.20;;
44426;SDS011;30133;47.866;-4.222;2022-12-24T08:08:26;8.02;;;2.15;;
44426;SDS011;30133;47.866;-4.222;2022-12-24T08:10:58;7.95;;;1.80;;
44426;SDS011;30133;47.866;-4.222;2022-12-24T08:13:31;8.05;;;2.17;;
44426;SDS011;30133;47.866;-4.222;2022-12-24T08:16:00;6.15;;;2.25;;
44426;SDS011;30133;47.866;-4.222;2022-12-24T08:18:29;6.50;;;2.38;;
44426;SDS011;30133;47.866;-4.222;2022-12-24T08:20:56;8.65;;;3.17;;
44426;SDS011;30133;47.866;-4.222;2022-12-24T08:23:23;5.63;;;2.72;;
44426;SDS011;30133;47.866;-4.222;2022-12-24T08:25:51;8.77;;;2.28;;
44426;SDS011;30133;47.866;-4.222;2022-12-24T08:28:18;4.53;;;1.90;;
44426;SDS011;30133;47.866;-4.222;2022-12-24T08:30:47;10.32;;;1.95;;
44426;SDS011;30133;47.866;-4.222;2022-12-24T08:33:15;10.80;;;2.20;;
44426;SDS011;30133;47.866;-4.222;2022-12-24T08:35:46;4.20;;;1.67;;
44426;SDS011;30133;47.866;-4.222;2022-12-24T08:38:15;8.15;;;2.88;;
44426;SDS011;30133;47.866;-4.222;2022-12-24T08:40:41;4.90;;;1.85;;
44426;SDS011;30133;47.866;-4.222;2022-12-24T08:43:13;5.47;;;2.53;;
44426;SDS011;30133;47.866;-4.222;2022-12-24T08:45:43;6.10;;;2.33;;
44426;SDS011;30133;47.866;-4.222;2022-12-24T08:48:12;8.95;;;2.03;;
44426;SDS011;30133;47.866;-4.222;2022-12-24T08:50:39;6.07;;;1.92;;
44426;SDS011;30133;47.866;-4.222;2022-12-24T08:53:09;6.88;;;2.05;;
44426;SDS011;30133;47.866;-4.222;2022-12-24T08:55:38;7.38;;;1.88;;
44426;SDS011;30133;47.866;-4.222;2022-12-24T08:58:06;8.73;;;2.20;;
44426;SDS011;30133;47.866;-4.222;2022-12-24T09:00:36;4.70;;;1.60;;
44426;SDS011;30133;47.866;-4.222;2022-12-24T09:03:02;9.20;;;1.80;;
44426;SDS011;30133;47.866;-4.222;2022-12-24T09:05:29;5.43;;;1.75;;
44426;SDS011;30133;47.866;-4.222;2022-12-24T09:07:55;5.63;;;1.95;;
44426;SDS011;30133;47.866;-4.222;2022-12-24T09:10:22;5.75;;;1.58;;
44426;SDS011;30133;47.866;-4.222;2022-12-24T09:12:49;5.53;;;1.95;;
44426;SDS011;30133;47.866;-4.222;2022-12-24T09:15:15;7.25;;;2.10;;
44426;SDS011;30133;47.866;-4.222;2022-12-24T09:17:43;14.07;;;1.40;;
44426;SDS011;30133;47.866;-4.222;2022-12-24T09:20:09;6.28;;;1.13;;
44426;SDS011;30133;47.866;-4.222;2022-12-24T09:22:37;7.78;;;2.50;;
44426;SDS011;30133;47.866;-4.222;2022-12-24T09:25:05;5.57;;;1.75;;
44426;SDS011;30133;47.866;-4.222;2022-12-24T09:27:35;7.68;;;1.52;;
44426;SDS011;30133;47.866;-4.222;2022-12-24T09:30:02;8.50;;;1.30;;
44426;SDS011;30133;47.866;-4.222;2022-12-24T09:32:30;13.68;;;1.98;;
44426;SDS011;30133;47.866;-4.222;2022-12-24T09:34:57;24.08;;;3.08;;
44426;SDS011;30133;47.866;-4.222;2022-12-24T09:37:26;29.17;;;2.95;;
44426;SDS011;30133;47.866;-4.222;2022-12-24T09:39:55;15.50;;;2.00;;
44426;SDS011;30133;47.866;-4.222;2022-12-24T09:42:47;24.73;;;2.55;;
44426;SDS011;30133;47.866;-4.222;2022-12-24T09:45:32;20.83;;;2.25;;
44426;SDS011;30133;47.866;-4.222;2022-12-24T09:50:45;20.65;;;2.40;;
44426;SDS011;30133;47.866;-4.222;2022-12-24T09:53:35;17.20;;;2.22;;
44426;SDS011;30133;47.866;-4.222;2022-12-24T09:56:26;17.30;;;1.55;;
44426;SDS011;30133;47.866;-4.222;2022-12-24T09:59:04;13.02;;;2.15;;
44426;SDS011;30133;47.866;-4.222;2022-12-24T10:01:36;25.73;;;1.88;;
44426;SDS011;30133;47.866;-4.222;2022-12-24T10:04:05;7.95;;;1.80;;
44426;SDS011;30133;47.866;-4.222;2022-12-24T10:09:40;6.97;;;1.48;;
44426;SDS011;30133;47.866;-4.222;2022-12-24T10:15:34;5.70;;;1.45;;
44426;SDS011;30133;47.866;-4.222;2022-12-24T10:20:58;4.43;;;1.20;;
44426;SDS011;30133;47.866;-4.222;2022-12-24T10:28:56;22.35;;;2.80;;
44426;SDS011;30133;47.866;-4.222;2022-12-24T10:31:32;9.32;;;1.58;;
44426;SDS011;30133;47.866;-4.222;2022-12-24T10:34:06;12.70;;;1.30;;
44426;SDS011;30133;47.866;-4.222;2022-12-24T10:36:45;12.57;;;1.73;;
44426;SDS011;30133;47.866;-4.222;2022-12-24T10:39:13;9.20;;;1.83;;
44426;SDS011;30133;47.866;-4.222;2022-12-24T10:41:47;6.35;;;1.65;;
44426;SDS011;30133;47.866;-4.222;2022-12-24T10:44:18;12.80;;;1.17;;
44426;SDS011;30133;47.866;-4.222;2022-12-24T10:46:50;7.65;;;1.65;;
44426;SDS011;30133;47.866;-4.222;2022-12-24T10:49:29;19.25;;;3.15;;
44426;SDS011;30133;47.866;-4.222;2022-12-24T10:52:14;5.32;;;1.13;;
44426;SDS011;30133;47.866;-4.222;2022-12-24T10:58:03;10.30;;;1.33;;
44426;SDS011;30133;47.866;-4.222;2022-12-24T11:00:34;3.50;;;1.27;;
44426;SDS011;30133;47.866;-4.222;2022-12-24T11:03:07;7.18;;;1.48;;
44426;SDS011;30133;47.866;-4.222;2022-12-24T11:05:46;6.82;;;1.55;;
44426;SDS011;30133;47.866;-4.222;2022-12-24T11:08:37;18.55;;;1.30;;
44426;SDS011;30133;47.866;-4.222;2022-12-24T11:11:16;5.80;;;1.02;;
44426;SDS011;30133;47.866;-4.222;2022-12-24T11:13:45;2.90;;;1.25;;
44426;SDS011;30133;47.866;-4.222;2022-12-24T11:16:29;5.03;;;1.08;;
44426;SDS011;30133;47.866;-4.222;2022-12-24T11:19:14;4.85;;;1.02;;
44426;SDS011;30133;47.866;-4.222;2022-12-24T11:21:44;5.65;;;1.65;;
44426;SDS011;30133;47.866;-4.222;2022-12-24T11:24:27;8.05;;;1.35;;
44426;SDS011;30133;47.866;-4.222;2022-12-24T11:32:41;3.75;;;1.27;;
44426;SDS011;30133;47.866;-4.222;2022-12-24T11:35:17;2.85;;;1.05;;
44426;SDS011;30133;47.866;-4.222;2022-12-24T11:37:46;4.97;;;1.08;;
44426;SDS011;30133;47.866;-4.222;2022-12-24T11:40:25;3.83;;;1.10;;
44426;SDS011;30133;47.866;-4.222;2022-12-24T11:43:02;2.95;;;1.17;;
44426;SDS011;30133;47.866;-4.222;2022-12-24T11:45:32;2.78;;;1.10;;
44426;SDS011;30133;47.866;-4.222;2022-12-24T11:47:59;2.53;;;0.73;;
44426;SDS011;30133;47.866;-4.222;2022-12-24T11:55:55;3.53;;;1.00;;
44426;SDS011;30133;47.866;-4.222;2022-12-24T11:58:36;6.65;;;0.90;;
44426;SDS011;30133;47.866;-4.222;2022-12-24T12:03:56;4.60;;;0.98;;
44426;SDS011;30133;47.866;-4.222;2022-12-24T12:07:05;3.67;;;1.20;;
44426;SDS011;30133;47.866;-4.222;2022-12-24T12:09:40;3.05;;;1.00;;
44426;SDS011;30133;47.866;-4.222;2022-12-24T12:12:23;3.08;;;1.05;;
44426;SDS011;30133;47.866;-4.222;2022-12-24T12:14:57;2.72;;;0.98;;
44426;SDS011;30133;47.866;-4.222;2022-12-24T12:17:48;5.22;;;1.13;;
44426;SDS011;30133;47.866;-4.222;2022-12-24T12:20:54;5.70;;;0.85;;
44426;SDS011;30133;47.866;-4.222;2022-12-24T12:23:30;1.38;;;0.95;;
44426;SDS011;30133;47.866;-4.222;2022-12-24T12:26:05;7.28;;;1.15;;
44426;SDS011;30133;47.866;-4.222;2022-12-24T12:31:59;6.07;;;0.95;;
44426;SDS011;30133;47.866;-4.222;2022-12-24T12:34:39;3.75;;;1.08;;
44426;SDS011;30133;47.866;-4.222;2022-12-24T12:37:35;2.75;;;1.15;;
44426;SDS011;30133;47.866;-4.222;2022-12-24T12:40:11;3.47;;;0.80;;
44426;SDS011;30133;47.866;-4.222;2022-12-24T12:42:40;5.30;;;0.93;;
44426;SDS011;30133;47.866;-4.222;2022-12-24T12:45:54;2.42;;;0.90;;
44426;SDS011;30133;47.866;-4.222;2022-12-24T12:51:47;1.60;;;0.88;;
44426;SDS011;30133;47.866;-4.222;2022-12-24T12:54:21;4.53;;;1.02;;
44426;SDS011;30133;47.866;-4.222;2022-12-24T12:57:14;5.85;;;1.67;;
44426;SDS011;30133;47.866;-4.222;2022-12-24T13:08:28;3.35;;;0.88;;
44426;SDS011;30133;47.866;-4.222;2022-12-24T13:11:38;2.72;;;0.82;;
44426;SDS011;30133;47.866;-4.222;2022-12-24T13:20:48;2.50;;;0.80;;
44426;SDS011;30133;47.866;-4.222;2022-12-24T13:23:20;2.78;;;0.93;;
44426;SDS011;30133;47.866;-4.222;2022-12-24T13:25:50;4.03;;;1.00;;
44426;SDS011;30133;47.866;-4.222;2022-12-24T13:30:48;3.47;;;1.23;;
44426;SDS011;30133;47.866;-4.222;2022-12-24T13:33:53;1.48;;;0.70;;
44426;SDS011;30133;47.866;-4.222;2022-12-24T13:36:24;2.72;;;1.02;;
44426;SDS011;30133;47.866;-4.222;2022-12-24T13:48:44;4.90;;;1.00;;
44426;SDS011;30133;47.866;-4.222;2022-12-24T13:51:23;2.00;;;0.93;;
44426;SDS011;30133;47.866;-4.222;2022-12-24T13:53:56;2.20;;;1.00;;
44426;SDS011;30133;47.866;-4.222;2022-12-24T13:56:37;2.60;;;0.90;;
44426;SDS011;30133;47.866;-4.222;2022-12-24T13:59:32;1.63;;;0.70;;
44426;SDS011;30133;47.866;-4.222;2022-12-24T14:02:02;4.03;;;1.38;;
44426;SDS011;30133;47.866;-4.222;2022-12-24T14:04:31;3.15;;;0.93;;
44426;SDS011;30133;47.866;-4.222;2022-12-24T14:07:02;19.85;;;2.00;;
44426;SDS011;30133;47.866;-4.222;2022-12-24T14:09:30;21.60;;;2.42;;
44426;SDS011;30133;47.866;-4.222;2022-12-24T14:14:28;8.82;;;1.40;;
44426;SDS011;30133;47.866;-4.222;2022-12-24T14:17:23;15.57;;;1.38;;
44426;SDS011;30133;47.866;-4.222;2022-12-24T14:19:56;6.18;;;1.83;;
44426;SDS011;30133;47.866;-4.222;2022-12-24T14:22:33;4.53;;;1.63;;
44426;SDS011;30133;47.866;-4.222;2022-12-24T14:25:15;13.95;;;1.95;;
44426;SDS011;30133;47.866;-4.222;2022-12-24T14:27:54;10.82;;;1.45;;
44426;SDS011;30133;47.866;-4.222;2022-12-24T14:30:30;10.77;;;1.85;;
44426;SDS011;30133;47.866;-4.222;2022-12-24T14:32:56;7.70;;;0.85;;
44426;SDS011;30133;47.866;-4.222;2022-12-24T14:35:34;4.68;;;1.20;;
44426;SDS011;30133;47.866;-4.222;2022-12-24T14:38:21;5.97;;;1.50;;
44426;SDS011;30133;47.866;-4.222;2022-12-24T14:41:14;12.07;;;1.20;;
44426;SDS011;30133;47.866;-4.222;2022-12-24T14:46:59;10.48;;;1.50;;
44426;SDS011;30133;47.866;-4.222;2022-12-24T14:50:37;10.05;;;1.35;;
44426;SDS011;30133;47.866;-4.222;2022-12-24T14:55:46;9.85;;;1.05;;
44426;SDS011;30133;47.866;-4.222;2022-12-24T15:00:45;9.18;;;1.10;;
44426;SDS011;30133;47.866;-4.222;2022-12-24T15:03:13;6.82;;;1.33;;
44426;SDS011;30133;47.866;-4.222;2022-12-24T15:05:42;7.85;;;1.40;;
44426;SDS011;30133;47.866;-4.222;2022-12-24T15:08:22;8.77;;;1.45;;
44426;SDS011;30133;47.866;-4.222;2022-12-24T15:13:32;7.40;;;1.98;;
44426;SDS011;30133;47.866;-4.222;2022-12-24T15:16:07;4.15;;;1.10;;
44426;SDS011;30133;47.866;-4.222;2022-12-24T15:18:49;15.20;;;1.23;;
44426;SDS011;30133;47.866;-4.222;2022-12-24T15:21:21;7.38;;;1.40;;
44426;SDS011;30133;47.866;-4.222;2022-12-24T15:27:11;8.25;;;1.25;;
44426;SDS011;30133;47.866;-4.222;2022-12-24T15:29:47;13.88;;;1.30;;
44426;SDS011;30133;47.866;-4.222;2022-12-24T15:32:17;14.30;;;2.03;;
44426;SDS011;30133;47.866;-4.222;2022-12-24T15:34:47;10.95;;;2.00;;
44426;SDS011;30133;47.866;-4.222;2022-12-24T15:37:35;5.15;;;1.52;;
44426;SDS011;30133;47.866;-4.222;2022-12-24T15:40:20;4.85;;;1.52;;
44426;SDS011;30133;47.866;-4.222;2022-12-24T15:42:48;5.10;;;1.45;;
44426;SDS011;30133;47.866;-4.222;2022-12-24T15:45:23;1.92;;;0.68;;
44426;SDS011;30133;47.866;-4.222;2022-12-24T15:47:55;2.90;;;1.00;;
44426;SDS011;30133;47.866;-4.222;2022-12-24T15:50:27;5.70;;;1.00;;
44426;SDS011;30133;47.866;-4.222;2022-12-24T15:53:06;7.07;;;1.52;;
44426;SDS011;30133;47.866;-4.222;2022-12-24T15:55:40;2.50;;;0.80;;
44426;SDS011;30133;47.866;-4.222;2022-12-24T15:58:15;6.40;;;1.15;;
44426;SDS011;30133;47.866;-4.222;2022-12-24T16:01:05;6.88;;;0.70;;
44426;SDS011;30133;47.866;-4.222;2022-12-24T16:06:22;9.88;;;0.80;;
44426;SDS011;30133;47.866;-4.222;2022-12-24T16:08:49;10.40;;;1.80;;
44426;SDS011;30133;47.866;-4.222;2022-12-24T16:11:25;13.05;;;1.73;;
44426;SDS011;30133;47.866;-4.222;2022-12-24T16:16:50;8.88;;;1.40;;
44426;SDS011;30133;47.866;-4.222;2022-12-24T16:19:23;6.93;;;1.50;;
44426;SDS011;30133;47.866;-4.222;2022-12-24T16:21:58;1.98;;;1.10;;
44426;SDS011;30133;47.866;-4.222;2022-12-24T16:24:50;12.60;;;1.27;;
44426;SDS011;30133;47.866;-4.222;2022-12-24T16:27:20;4.25;;;1.15;;
44426;SDS011;30133;47.866;-4.222;2022-12-24T16:29:46;7.22;;;1.00;;
44426;SDS011;30133;47.866;-4.222;2022-12-24T16:32:32;11.63;;;0.93;;
44426;SDS011;30133;47.866;-4.222;2022-12-24T16:35:02;3.95;;;1.30;;
44426;SDS011;30133;47.866;-4.222;2022-12-24T16:37:32;3.63;;;1.15;;
44426;SDS011;30133;47.866;-4.222;2022-12-24T16:39:59;3.13;;;1.08;;
44426;SDS011;30133;47.866;-4.222;2022-12-24T16:42:28;5.88;;;1.27;;
44426;SDS011;30133;47.866;-4.222;2022-12-24T16:45:12;6.07;;;1.02;;
44426;SDS011;30133;47.866;-4.222;2022-12-24T16:47:39;5.03;;;2.17;;
44426;SDS011;30133;47.866;-4.222;2022-12-24T16:50:06;5.40;;;1.83;;
44426;SDS011;30133;47.866;-4.222;2022-12-24T16:52:38;3.40;;;0.80;;
44426;SDS011;30133;47.866;-4.222;2022-12-24T16:55:05;3.38;;;1.17;;
44426;SDS011;30133;47.866;-4.222;2022-12-24T16:57:34;5.40;;;1.02;;